createdAt,value
2022-12-01T00:01:12.751Z,101978.38
2022-12-01T00:03:40.405Z,101973.22
2022-12-01T00:06:11.764Z,101980.13
2022-12-01T00:08:38.729Z,101953.53
2022-12-01T00:11:07.780Z,101960.50
2022-12-01T00:13:35.479Z,101952.72
2022-12-01T00:16:13.563Z,101953.59
2022-12-01T00:18:41.151Z,101965.31
2022-12-01T00:21:14.500Z,101969.72
2022-12-01T00:23:47.249Z,101970.47
2022-12-01T00:26:15.528Z,101974.00
2022-12-01T00:28:42.801Z,101961.31
2022-12-01T00:31:10.594Z,101969.66
2022-12-01T00:33:38.129Z,101967.91
2022-12-01T00:36:05.636Z,101972.28
2022-12-01T00:38:33.011Z,101965.37
2022-12-01T00:40:59.772Z,101968.87
2022-12-01T00:43:26.706Z,101968.00
2022-12-01T00:45:53.398Z,101967.12
2022-12-01T00:48:20.838Z,101966.28
2022-12-01T00:50:49.384Z,101970.66
2022-12-01T00:53:16.179Z,101965.44
2022-12-01T00:55:42.904Z,101958.50
2022-12-01T00:58:09.974Z,101962.88
2022-12-01T01:00:39.957Z,101953.47
2022-12-01T01:03:07.170Z,101957.81
2022-12-01T01:05:38.793Z,101955.41
2022-12-01T01:08:11.065Z,101952.13
2022-12-01T01:10:42.804Z,101960.88
2022-12-01T01:13:09.695Z,101959.34
2022-12-01T01:15:36.438Z,101958.66
2022-12-01T01:18:03.837Z,101958.00
2022-12-01T01:20:31.092Z,101952.03
2022-12-01T01:22:58.033Z,101952.22
2022-12-01T01:25:25.656Z,101950.66
2022-12-01T01:27:52.341Z,101942.37
2022-12-01T01:30:19.883Z,101956.06
2022-12-01T01:32:47.311Z,101950.94
2022-12-01T01:35:13.956Z,101950.22
2022-12-01T01:37:40.703Z,101947.75
2022-12-01T01:40:08.340Z,101946.97
2022-12-01T01:42:35.006Z,101934.31
2022-12-01T01:45:01.821Z,101945.37
2022-12-01T01:47:38.494Z,101947.19
2022-12-01T01:50:10.459Z,101933.69
2022-12-01T01:52:44.572Z,101951.75
2022-12-01T01:55:12.739Z,101923.56
2022-12-01T01:57:40.494Z,101949.38
2022-12-01T02:00:15.969Z,101949.38
2022-12-01T02:02:45.789Z,101953.00
2022-12-01T02:05:26.002Z,101951.31
2022-12-01T02:07:55.243Z,101948.78
2022-12-01T02:10:30.414Z,101947.91
2022-12-01T02:13:21.980Z,101952.34
2022-12-01T02:16:02.663Z,101948.06
2022-12-01T02:18:55.632Z,101949.97
2022-12-01T02:21:54.494Z,101938.28
2022-12-01T02:24:49.725Z,101948.59
2022-12-01T02:27:30.781Z,101959.28
2022-12-01T02:29:57.341Z,101943.75
2022-12-01T02:32:33.418Z,101934.59
2022-12-01T02:35:27.032Z,101937.28
2022-12-01T02:38:09.063Z,101950.31
2022-12-01T02:40:56.197Z,101944.31
2022-12-01T02:43:38.078Z,101946.16
2022-12-01T02:46:30.023Z,101944.44
2022-12-01T02:49:01.991Z,101930.19
2022-12-01T02:51:34.478Z,101944.66
2022-12-01T02:54:03.474Z,101933.75
2022-12-01T02:56:30.136Z,101934.63
2022-12-01T02:58:57.026Z,101944.84
2022-12-01T03:02:04.191Z,101937.25
2022-12-01T03:04:46.136Z,101946.84
2022-12-01T03:07:22.297Z,101944.41
2022-12-01T03:10:04.698Z,101947.12
2022-12-01T03:12:56.466Z,101951.59
2022-12-01T03:15:34.061Z,101949.94
2022-12-01T03:18:25.564Z,101934.78
2022-12-01T03:20:57.794Z,101951.91
2022-12-01T03:23:28.768Z,101955.50
2022-12-01T03:25:57.968Z,101953.84
2022-12-01T03:28:32.443Z,101929.13
2022-12-01T03:31:07.127Z,101953.22
2022-12-01T03:33:40.914Z,101943.72
2022-12-01T03:36:10.580Z,101949.78
2022-12-01T03:38:39.385Z,101947.28
2022-12-01T03:41:14.762Z,101951.75
2022-12-01T03:43:48.592Z,101952.72
2022-12-01T03:46:29.468Z,101946.81
2022-12-01T03:48:56.629Z,101952.88
2022-12-01T03:51:33.707Z,101955.63
2022-12-01T03:54:14.404Z,101942.09
2022-12-01T03:56:49.907Z,101948.06
2022-12-01T03:59:20.975Z,101953.28
2022-12-01T04:01:48.039Z,101954.97
2022-12-01T04:04:15.159Z,101942.09
2022-12-01T04:06:45.030Z,101938.91
2022-12-01T04:09:11.883Z,101949.97
2022-12-01T04:11:57.285Z,101953.59
2022-12-01T04:14:23.966Z,101956.25
2022-12-01T04:16:50.864Z,101965.84
2022-12-01T04:19:17.648Z,101957.25
2022-12-01T04:21:44.350Z,101956.44
2022-12-01T04:24:12.511Z,101950.47
2022-12-01T04:26:39.425Z,101942.22
2022-12-01T04:29:09.192Z,101955.84
2022-12-01T04:31:36.261Z,101960.25
2022-12-01T04:34:03.062Z,101961.09
2022-12-01T04:36:32.035Z,101958.53
2022-12-01T04:38:59.505Z,101965.47
2022-12-01T04:41:26.221Z,101960.25
2022-12-01T04:43:54.678Z,101956.03
2022-12-01T04:46:22.394Z,101961.25
2022-12-01T04:48:49.390Z,101955.44
2022-12-01T04:51:16.091Z,101945.97
2022-12-01T04:53:43.247Z,101971.75
2022-12-01T04:56:10.461Z,101967.44
2022-12-01T04:58:37.913Z,101958.84
2022-12-01T05:01:08.628Z,101971.06
2022-12-01T05:03:40.061Z,101962.37
2022-12-01T05:06:12.749Z,101970.25
2022-12-01T05:08:39.864Z,101969.41
2022-12-01T05:11:11.867Z,101971.19
2022-12-01T05:13:44.597Z,101972.16
2022-12-01T05:16:18.671Z,101975.63
2022-12-01T05:18:50.861Z,101972.25
2022-12-01T05:21:18.520Z,101981.84
2022-12-01T05:23:45.673Z,101975.87
2022-12-01T05:26:12.375Z,101967.56
2022-12-01T05:28:40.904Z,101976.91
2022-12-01T05:31:07.904Z,101962.50
2022-12-01T05:33:34.615Z,101980.53
2022-12-01T05:36:01.285Z,101985.81
2022-12-01T05:38:28.194Z,101977.16
2022-12-01T05:40:56.012Z,101984.12
2022-12-01T05:43:28.728Z,101987.59
2022-12-01T05:45:57.423Z,101991.09
2022-12-01T05:48:24.234Z,101988.50
2022-12-01T05:50:51.407Z,101977.47
2022-12-01T05:53:19.108Z,101987.59
2022-12-01T05:55:46.112Z,101979.19
2022-12-01T05:58:13.091Z,102000.63
2022-12-01T06:00:45.790Z,101998.03
2022-12-01T06:03:13.718Z,101980.88
2022-12-01T06:05:41.275Z,101977.38
2022-12-01T06:08:08.383Z,101991.88
2022-12-01T06:10:35.550Z,101980.72
2022-12-01T06:13:02.505Z,101986.75
2022-12-01T06:15:29.187Z,101998.56
2022-12-01T06:17:59.139Z,101995.87
2022-12-01T06:20:26.560Z,101989.87
2022-12-01T06:22:53.364Z,101988.19
2022-12-01T06:25:20.647Z,102002.53
2022-12-01T06:27:47.353Z,102000.69
2022-12-01T06:30:14.158Z,101989.50
2022-12-01T06:32:41.040Z,101998.66
2022-12-01T06:35:08.153Z,102000.31
2022-12-01T06:37:34.887Z,101983.06
2022-12-01T06:40:02.010Z,101991.31
2022-12-01T06:42:32.474Z,101992.94
2022-12-01T06:44:59.191Z,101991.06
2022-12-01T06:47:27.230Z,101994.34
2022-12-01T06:49:53.888Z,101987.50
2022-12-01T06:52:20.497Z,101987.13
2022-12-01T06:54:47.391Z,101975.19
2022-12-01T06:57:14.561Z,101988.63
2022-12-01T06:59:41.588Z,101992.84
2022-12-01T07:02:12.565Z,101986.84
2022-12-01T07:04:39.380Z,101988.53
2022-12-01T07:07:06.463Z,101992.75
2022-12-01T07:09:34.208Z,101990.09
2022-12-01T07:12:00.941Z,101968.59
2022-12-01T07:14:27.651Z,101986.50
2022-12-01T07:16:55.186Z,101988.19
2022-12-01T07:19:22.208Z,101998.53
2022-12-01T07:21:49.320Z,101993.38
2022-12-01T07:24:16.603Z,101987.22
2022-12-01T07:26:43.698Z,101973.41
2022-12-01T07:29:11.345Z,102003.44
2022-12-01T07:31:38.766Z,101991.19
2022-12-01T07:34:06.266Z,101987.56
2022-12-01T07:36:32.918Z,101989.19
2022-12-01T07:39:00.052Z,101992.56
2022-12-01T07:41:26.654Z,101979.81
2022-12-01T07:43:55.180Z,101982.31
2022-12-01T07:46:25.219Z,102001.00
2022-12-01T07:48:53.393Z,101983.81
2022-12-01T07:51:21.248Z,101996.41
2022-12-01T07:53:49.979Z,101998.97
2022-12-01T07:56:18.184Z,101973.09
2022-12-01T07:58:45.255Z,101990.03
2022-12-01T08:01:15.855Z,101984.69
2022-12-01T08:03:43.490Z,101993.25
2022-12-01T08:06:10.546Z,101986.28
2022-12-01T08:08:41.340Z,101986.97
2022-12-01T08:11:25.066Z,101983.28
2022-12-01T08:13:52.737Z,101975.63
2022-12-01T08:16:22.829Z,101989.06
2022-12-01T08:18:50.027Z,101979.56
2022-12-01T08:21:19.987Z,101982.87
2022-12-01T08:23:47.163Z,101983.00
2022-12-01T08:26:19.154Z,101981.88
2022-12-01T08:28:46.203Z,101961.38
2022-12-01T08:31:17.654Z,101983.44
2022-12-01T08:33:45.556Z,101966.34
2022-12-01T08:36:12.342Z,101979.88
2022-12-01T08:38:39.214Z,101968.47
2022-12-01T08:41:09.050Z,101952.13
2022-12-01T08:46:29.114Z,101971.53
2022-12-01T08:48:57.389Z,101975.72
2022-12-01T08:51:25.035Z,101966.81
2022-12-01T08:53:52.203Z,101949.59
2022-12-01T10:25:05.992Z,101915.19
2022-12-01T10:28:10.051Z,101915.19
2022-12-01T10:30:47.255Z,101919.38
2022-12-01T10:33:33.688Z,101912.28
2022-12-01T10:36:00.382Z,101883.12
2022-12-01T10:38:34.790Z,101900.12
2022-12-01T10:41:03.757Z,101905.22
2022-12-01T10:43:57.683Z,101900.87
2022-12-01T10:46:32.232Z,101912.09
2022-12-01T10:49:06.824Z,101901.69
2022-12-01T10:51:48.070Z,101901.69
2022-12-01T10:54:15.009Z,101886.44
2022-12-01T10:56:45.694Z,101893.25
2022-12-01T10:59:44.149Z,101898.13
2022-12-01T11:02:18.146Z,101881.84
2022-12-01T11:04:53.612Z,101878.16
2022-12-01T11:07:32.106Z,101891.56
2022-12-01T11:10:13.428Z,101887.25
2022-12-01T11:12:41.180Z,101896.97
2022-12-01T11:15:17.918Z,101885.50
2022-12-01T11:17:45.156Z,101888.97
2022-12-01T11:20:38.116Z,101880.25
2022-12-01T11:23:21.497Z,101885.56
2022-12-01T11:26:02.194Z,101877.72
2022-12-01T11:28:30.803Z,101860.81
2022-12-01T11:31:04.250Z,101875.16
2022-12-01T11:33:39.678Z,101874.31
2022-12-01T11:36:11.747Z,101884.84
2022-12-01T11:38:41.871Z,101886.56
2022-12-01T11:41:26.793Z,101883.19
2022-12-01T11:44:01.533Z,101884.09
2022-12-01T11:46:33.693Z,101874.44
2022-12-01T11:49:01.515Z,101879.69
2022-12-01T11:51:39.157Z,101876.31
2022-12-01T11:54:23.547Z,101875.59
2022-12-01T11:57:17.420Z,101879.16
2022-12-01T11:59:39.240Z,101884.41
2022-12-01T12:02:39.995Z,101881.94
2022-12-01T12:05:35.347Z,101875.81
2022-12-01T12:08:07.671Z,101877.59
2022-12-01T12:10:37.547Z,101878.44
2022-12-01T12:13:16.290Z,101879.31
2022-12-01T12:15:51.226Z,101856.09
2022-12-01T12:18:32.536Z,101873.03
2022-12-01T12:21:17.771Z,101868.81
2022-12-01T12:24:23.386Z,101879.16
2022-12-01T12:27:27.535Z,101860.47
2022-12-01T12:30:09.427Z,101874.06
2022-12-01T12:32:36.458Z,101875.75
2022-12-01T12:35:03.654Z,101873.03
2022-12-01T12:37:53.921Z,101871.38
2022-12-01T12:40:41.670Z,101862.94
2022-12-01T12:43:43.922Z,101870.44
2022-12-01T12:46:27.649Z,101871.06
2022-12-01T12:49:26.435Z,101861.81
2022-12-01T12:52:14.963Z,101869.34
2022-12-01T12:54:58.975Z,101862.94
2022-12-01T12:57:29.694Z,101862.31
2022-12-01T13:00:04.673Z,101877.91
2022-12-01T13:02:41.014Z,101880.75
2022-12-01T13:05:23.829Z,101879.25
2022-12-01T13:07:59.800Z,101883.72
2022-12-01T13:10:34.440Z,101886.50
2022-12-01T13:13:30.791Z,101892.72
2022-12-01T13:15:59.513Z,101888.47
2022-12-01T13:18:39.432Z,101881.56
2022-12-01T13:21:07.190Z,101887.72
2022-12-01T13:23:37.912Z,101878.00
2022-12-01T13:26:08.794Z,101865.34
2022-12-01T13:28:50.289Z,101869.59
2022-12-01T13:31:19.283Z,101872.69
2022-12-01T13:33:58.110Z,101883.09
2022-12-01T13:39:29.629Z,101872.59
2022-12-01T13:42:21.666Z,101870.00
2022-12-01T13:44:58.313Z,101865.84
2022-12-01T13:47:37.067Z,101876.25
2022-12-01T13:50:46.062Z,101861.81
2022-12-01T13:53:25.230Z,101878.00
2022-12-01T13:56:17.249Z,101853.94
2022-12-01T13:58:46.078Z,101872.75
2022-12-01T14:01:25.723Z,101872.75
2022-12-01T14:04:03.278Z,101883.22
2022-12-01T14:06:36.136Z,101873.69
2022-12-01T14:09:14.812Z,101880.63
2022-12-01T14:11:54.272Z,101864.44
2022-12-01T14:14:26.322Z,101861.81
2022-12-01T14:16:55.575Z,101879.69
2022-12-01T14:19:47.950Z,101863.50
2022-12-01T14:22:44.598Z,101884.03
2022-12-01T14:25:20.759Z,101884.03
2022-12-01T14:27:52.592Z,101886.66
2022-12-01T14:30:38.522Z,101884.94
2022-12-01T14:33:39.752Z,101882.31
2022-12-01T14:36:09.151Z,101892.88
2022-12-01T14:38:36.802Z,101890.25
2022-12-01T14:41:09.963Z,101886.78
2022-12-01T14:44:00.150Z,101876.47
2022-12-01T14:46:30.943Z,101879.84
2022-12-01T14:48:59.021Z,101883.22
2022-12-01T14:51:32.688Z,101880.63
2022-12-01T14:54:04.206Z,101881.47
2022-12-01T14:56:33.275Z,101884.19
2022-12-01T14:59:15.174Z,101887.63
2022-12-01T15:01:42.014Z,101879.91
2022-12-01T15:04:09.116Z,101882.47
2022-12-01T15:06:37.643Z,101879.00
2022-12-01T15:12:04.757Z,101881.63
2022-12-01T15:14:37.097Z,101881.63
2022-12-01T15:17:06.226Z,101881.63
2022-12-01T15:19:37.481Z,101872.12
2022-12-01T15:22:17.834Z,101882.47
2022-12-01T15:24:45.624Z,101874.69
2022-12-01T15:27:43.160Z,101859.34
2022-12-01T15:30:15.420Z,101867.66
2022-12-01T15:32:45.858Z,101873.84
2022-12-01T15:35:21.574Z,101876.47
2022-12-01T15:37:50.701Z,101874.69
2022-12-01T15:43:16.702Z,101853.38
2022-12-01T15:45:55.079Z,101857.47
2022-12-01T15:48:34.352Z,101842.97
2022-12-01T15:51:27.007Z,101860.81
2022-12-01T15:53:58.244Z,101863.50
2022-12-01T15:56:31.707Z,101861.81
2022-12-01T15:59:51.293Z,101862.56
2022-12-01T16:02:30.619Z,101863.50
2022-12-01T16:05:14.647Z,101862.56
2022-12-01T16:08:12.151Z,101850.50
2022-12-01T16:10:31.864Z,101847.81
2022-12-01T16:13:36.221Z,101860.09
2022-12-01T16:16:30.224Z,101857.41
2022-12-01T16:19:02.272Z,101858.28
2022-12-01T16:21:33.852Z,101853.03
2022-12-01T16:24:05.791Z,101850.34
2022-12-01T16:26:33.782Z,101849.47
2022-12-01T16:29:00.592Z,101827.25
2022-12-01T16:31:27.486Z,101846.94
2022-12-01T16:34:13.896Z,101835.53
2022-12-01T16:36:46.107Z,101842.56
2022-12-01T16:39:14.334Z,101841.62
2022-12-01T16:41:44.817Z,101837.31
2022-12-01T16:44:28.118Z,101837.31
2022-12-01T16:46:56.185Z,101839.16
2022-12-01T16:49:23.057Z,101835.78
2022-12-01T16:51:56.077Z,101834.13
2022-12-01T16:54:23.837Z,101837.75
2022-12-01T16:56:51.072Z,101834.44
2022-12-01T16:59:17.792Z,101835.34
2022-12-01T17:01:44.788Z,101837.19
2022-12-01T17:04:11.531Z,101834.66
2022-12-01T17:06:38.469Z,101839.97
2022-12-01T17:09:06.002Z,101831.34
2022-12-01T17:11:33.004Z,101835.72
2022-12-01T17:13:59.879Z,101834.09
2022-12-01T17:16:27.040Z,101810.25
2022-12-01T17:18:53.781Z,101832.63
2022-12-01T17:21:20.522Z,101830.00
2022-12-01T17:23:47.863Z,101830.13
2022-12-01T17:26:16.556Z,101841.53
2022-12-01T17:28:43.519Z,101847.66
2022-12-01T17:31:12.146Z,101834.78
2022-12-01T17:33:39.631Z,101827.28
2022-12-01T17:36:14.603Z,101840.91
2022-12-01T17:38:44.785Z,101821.22
2022-12-01T17:41:14.244Z,101833.03
2022-12-01T17:43:42.248Z,101823.63
2022-12-01T17:46:11.628Z,101823.63
2022-12-01T17:48:40.664Z,101834.09
2022-12-01T17:51:09.064Z,101825.47
2022-12-01T17:53:37.032Z,101830.84
2022-12-01T17:56:08.488Z,101822.34
2022-12-01T17:58:36.418Z,101817.41
2022-12-01T18:01:03.967Z,101818.44
2022-12-01T18:03:31.317Z,101822.50
2022-12-01T18:05:59.499Z,101820.78
2022-12-01T18:08:28.146Z,101827.03
2022-12-01T18:10:55.242Z,101825.47
2022-12-01T18:13:22.960Z,101822.91
2022-12-01T18:15:51.134Z,101825.59
2022-12-01T18:18:18.460Z,101824.91
2022-12-01T18:20:45.704Z,101825.03
2022-12-01T18:23:13.343Z,101827.69
2022-12-01T18:25:40.488Z,101833.00
2022-12-01T18:28:07.974Z,101834.00
2022-12-01T18:30:35.011Z,101834.06
2022-12-01T18:33:02.174Z,101833.28
2022-12-01T18:35:31.884Z,101828.09
2022-12-01T18:37:58.931Z,101829.94
2022-12-01T18:40:27.188Z,101825.69
2022-12-01T18:42:53.918Z,101829.25
2022-12-01T18:45:21.446Z,101812.41
2022-12-01T18:47:50.091Z,101822.44
2022-12-01T18:50:17.129Z,101836.44
2022-12-01T18:52:44.163Z,101834.78
2022-12-01T18:55:11.218Z,101834.84
2022-12-01T18:57:37.869Z,101828.84
2022-12-01T19:00:06.128Z,101822.00
2022-12-01T19:02:33.112Z,101832.44
2022-12-01T19:04:59.816Z,101828.22
2022-12-01T19:07:29.955Z,101810.34
2022-12-01T19:09:57.841Z,101830.84
2022-12-01T19:12:24.513Z,101826.78
2022-12-01T19:14:53.074Z,101829.25
2022-12-01T19:17:21.470Z,101819.28
2022-12-01T19:19:48.150Z,101845.84
2022-12-01T19:22:17.509Z,101836.34
2022-12-01T19:24:49.898Z,101817.69
2022-12-01T19:27:20.054Z,101844.19
2022-12-01T19:29:49.591Z,101839.78
2022-12-01T19:32:16.522Z,101838.16
2022-12-01T19:34:44.110Z,101840.75
2022-12-01T19:37:11.410Z,101832.16
2022-12-01T19:39:38.204Z,101840.75
2022-12-01T19:42:05.225Z,101827.19
2022-12-01T19:44:32.146Z,101833.06
2022-12-01T19:46:58.844Z,101844.31
2022-12-01T19:49:25.576Z,101839.09
2022-12-01T19:51:52.502Z,101839.09
2022-12-01T19:54:20.244Z,101825.59
2022-12-01T19:56:47.097Z,101839.09
2022-12-01T19:59:14.941Z,101839.16
2022-12-01T20:01:41.681Z,101832.97
2022-12-01T20:04:08.852Z,101834.81
2022-12-01T20:06:37.828Z,101834.81
2022-12-01T20:09:06.342Z,101822.22
2022-12-01T20:11:35.295Z,101840.06
2022-12-01T20:14:04.097Z,101831.38
2022-12-01T20:16:30.878Z,101843.44
2022-12-01T20:19:01.629Z,101844.50
2022-12-01T20:21:31.718Z,101842.88
2022-12-01T20:24:06.839Z,101847.28
2022-12-01T20:26:36.812Z,101849.97
2022-12-01T20:29:09.839Z,101837.91
2022-12-01T20:31:37.630Z,101847.56
2022-12-01T20:34:09.042Z,101826.41
2022-12-01T20:36:36.813Z,101848.62
2022-12-01T20:39:04.915Z,101852.19
2022-12-01T20:41:32.395Z,101851.44
2022-12-01T20:44:02.432Z,101852.41
2022-12-01T20:46:34.453Z,101850.69
2022-12-01T20:49:01.246Z,101835.53
2022-12-01T20:51:28.373Z,101853.50
2022-12-01T20:54:26.062Z,101850.22
2022-12-01T20:56:42.029Z,101852.97
2022-12-01T20:59:09.114Z,101841.91
2022-12-01T21:01:36.147Z,101857.25
2022-12-01T21:04:03.226Z,101860.69
2022-12-01T21:06:30.231Z,101862.50
2022-12-01T21:08:56.874Z,101861.53
2022-12-01T21:12:03.512Z,101863.28
2022-12-01T21:14:37.710Z,101865.91
2022-12-01T21:17:18.335Z,101858.19
2022-12-01T21:19:57.140Z,101855.84
2022-12-01T21:22:24.924Z,101867.72
2022-12-01T21:24:56.322Z,101872.09
2022-12-01T21:27:22.942Z,101867.00
2022-12-01T21:29:50.649Z,101870.50
2022-12-01T21:32:22.574Z,101874.97
2022-12-01T21:34:50.052Z,101860.44
2022-12-01T21:37:22.136Z,101866.50
2022-12-01T21:39:51.109Z,101864.94
2022-12-01T21:42:25.133Z,101867.63
2022-12-01T21:44:52.504Z,101854.00
2022-12-01T21:47:21.655Z,101861.72
2022-12-01T21:49:56.167Z,101860.81
2022-12-01T21:52:30.030Z,101865.31
2022-12-01T21:55:09.122Z,101863.69
2022-12-01T21:57:48.054Z,101863.81
2022-12-01T22:00:31.528Z,101851.78
2022-12-01T22:03:29.160Z,101850.37
2022-12-01T22:06:28.397Z,101863.13
2022-12-01T22:08:57.711Z,101863.13
2022-12-01T22:11:27.017Z,101850.19
2022-12-01T22:14:09.338Z,101855.34
2022-12-01T22:16:40.869Z,101851.00
2022-12-01T22:19:32.190Z,101845.78
2022-12-01T22:22:01.808Z,101844.06
2022-12-01T22:24:40.997Z,101816.63
2022-12-01T22:27:16.435Z,101836.16
2022-12-01T22:29:46.044Z,101837.94
2022-12-01T22:32:13.035Z,101823.41
2022-12-01T22:34:49.594Z,101807.31
2022-12-01T22:37:22.287Z,101835.31
2022-12-01T22:39:51.653Z,101837.00
2022-12-01T22:42:25.747Z,101836.09
2022-12-01T22:44:52.775Z,101840.44
2022-12-01T22:47:19.891Z,101830.81
2022-12-01T22:49:46.623Z,101815.53
2022-12-01T22:52:27.096Z,101828.28
2022-12-01T22:54:55.030Z,101825.00
2022-12-01T22:57:24.824Z,101836.87
2022-12-01T22:59:52.645Z,101839.50
2022-12-01T23:02:27.079Z,101829.97
2022-12-01T23:04:59.736Z,101831.78
2022-12-01T23:07:31.306Z,101811.41
2022-12-01T23:10:19.323Z,101824.88
2022-12-01T23:12:48.644Z,101830.16
2022-12-01T23:15:15.209Z,101836.22
2022-12-01T23:17:41.937Z,101818.97
2022-12-01T23:20:30.991Z,101820.75
2022-12-01T23:23:00.624Z,101807.81
2022-12-01T23:25:28.364Z,101824.88
2022-12-01T23:27:59.201Z,101819.66
2022-12-01T23:30:26.311Z,101817.94
2022-12-01T23:33:04.161Z,101818.78
2022-12-01T23:35:34.796Z,101829.09
2022-12-01T23:38:02.008Z,101819.59
2022-12-01T23:40:34.342Z,101810.31
2022-12-01T23:43:17.734Z,101807.63
2022-12-01T23:45:45.867Z,101823.13
2022-12-01T23:48:19.376Z,101823.19
2022-12-01T23:50:49.535Z,101826.69
2022-12-01T23:53:25.665Z,101820.69
2022-12-01T23:55:53.279Z,101821.59
2022-12-01T23:58:20.284Z,101823.31
